sensor_id;sensor_type;location;lat;lon;timestamp;temperature;humidity
75457;SHT31;64036;48.266;14.192;2024-03-06T00:01:54;6.92;77.10
75457;SHT31;64036;48.266;14.192;2024-03-06T00:04:20;6.94;77.07
75457;SHT31;64036;48.266;14.192;2024-03-06T00:06:46;6.94;77.16
75457;SHT31;64036;48.266;14.192;2024-03-06T00:09:25;6.98;77.30
75457;SHT31;64036;48.266;14.192;2024-03-06T00:11:55;7.00;77.34
75457;SHT31;64036;48.266;14.192;2024-03-06T00:14:25;7.02;77.41
75457;SHT31;64036;48.266;14.192;2024-03-06T00:16:54;7.05;77.50
75457;SHT31;64036;48.266;14.192;2024-03-06T00:19:23;7.08;77.50
75457;SHT31;64036;48.266;14.192;2024-03-06T00:21:49;7.13;77.50
75457;SHT31;64036;48.266;14.192;2024-03-06T00:24:18;7.17;77.49
75457;SHT31;64036;48.266;14.192;2024-03-06T00:26:44;7.22;77.44
75457;SHT31;64036;48.266;14.192;2024-03-06T00:29:12;7.25;77.36
75457;SHT31;64036;48.266;14.192;2024-03-06T00:31:42;7.27;77.31
75457;SHT31;64036;48.266;14.192;2024-03-06T00:34:10;7.30;77.27
75457;SHT31;64036;48.266;14.192;2024-03-06T00:36:42;7.33;77.18
75457;SHT31;64036;48.266;14.192;2024-03-06T00:39:11;7.35;77.06
75457;SHT31;64036;48.266;14.192;2024-03-06T00:41:40;7.36;76.93
75457;SHT31;64036;48.266;14.192;2024-03-06T00:44:10;7.31;76.80
75457;SHT31;64036;48.266;14.192;2024-03-06T00:46:36;7.26;76.71
75457;SHT31;64036;48.266;14.192;2024-03-06T00:49:02;7.17;76.66
75457;SHT31;64036;48.266;14.192;2024-03-06T00:51:28;7.07;76.70
75457;SHT31;64036;48.266;14.192;2024-03-06T00:53:54;6.99;76.71
75457;SHT31;64036;48.266;14.192;2024-03-06T00:56:19;6.96;76.67
75457;SHT31;64036;48.266;14.192;2024-03-06T00:58:45;6.90;76.52
75457;SHT31;64036;48.266;14.192;2024-03-06T01:01:12;6.84;76.59
75457;SHT31;64036;48.266;14.192;2024-03-06T01:03:40;6.83;76.65
75457;SHT31;64036;48.266;14.192;2024-03-06T01:06:06;6.82;76.63
75457;SHT31;64036;48.266;14.192;2024-03-06T01:08:34;6.83;76.61
75457;SHT31;64036;48.266;14.192;2024-03-06T01:11:01;6.84;76.60
75457;SHT31;64036;48.266;14.192;2024-03-06T01:13:28;6.85;76.70
75457;SHT31;64036;48.266;14.192;2024-03-06T01:15:56;6.86;76.67
75457;SHT31;64036;48.266;14.192;2024-03-06T01:18:24;6.85;76.61
75457;SHT31;64036;48.266;14.192;2024-03-06T01:20:52;6.84;76.61
75457;SHT31;64036;48.266;14.192;2024-03-06T01:23:18;6.84;76.62
75457;SHT31;64036;48.266;14.192;2024-03-06T01:25:44;6.83;76.71
75457;SHT31;64036;48.266;14.192;2024-03-06T01:28:10;6.84;76.77
75457;SHT31;64036;48.266;14.192;2024-03-06T01:30:38;6.84;76.69
75457;SHT31;64036;48.266;14.192;2024-03-06T01:33:05;6.80;76.71
75457;SHT31;64036;48.266;14.192;2024-03-06T01:35:33;6.78;76.84
75457;SHT31;64036;48.266;14.192;2024-03-06T01:37:59;6.78;76.81
75457;SHT31;64036;48.266;14.192;2024-03-06T01:40:28;6.75;76.85
75457;SHT31;64036;48.266;14.192;2024-03-06T01:42:54;6.75;76.99
75457;SHT31;64036;48.266;14.192;2024-03-06T01:45:30;6.77;77.11
75457;SHT31;64036;48.266;14.192;2024-03-06T01:47:56;6.79;77.15
75457;SHT31;64036;48.266;14.192;2024-03-06T01:50:22;6.78;77.12
75457;SHT31;64036;48.266;14.192;2024-03-06T01:52:50;6.78;77.10
75457;SHT31;64036;48.266;14.192;2024-03-06T01:55:16;6.78;77.12
75457;SHT31;64036;48.266;14.192;2024-03-06T01:57:42;6.78;77.28
75457;SHT31;64036;48.266;14.192;2024-03-06T02:00:13;6.80;77.23
75457;SHT31;64036;48.266;14.192;2024-03-06T02:02:42;6.83;77.30
75457;SHT31;64036;48.266;14.192;2024-03-06T02:05:08;6.85;77.24
75457;SHT31;64036;48.266;14.192;2024-03-06T02:07:38;6.88;77.20
75457;SHT31;64036;48.266;14.192;2024-03-06T02:10:06;6.88;77.17
75457;SHT31;64036;48.266;14.192;2024-03-06T02:12:37;6.89;77.07
75457;SHT31;64036;48.266;14.192;2024-03-06T02:15:03;6.87;77.00
75457;SHT31;64036;48.266;14.192;2024-03-06T02:17:30;6.86;77.00
75457;SHT31;64036;48.266;14.192;2024-03-06T02:20:01;6.85;76.97
75457;SHT31;64036;48.266;14.192;2024-03-06T02:22:30;6.83;76.98
75457;SHT31;64036;48.266;14.192;2024-03-06T02:24:57;6.79;77.00
75457;SHT31;64036;48.266;14.192;2024-03-06T02:27:27;6.72;77.01
75457;SHT31;64036;48.266;14.192;2024-03-06T02:29:52;6.62;76.91
75457;SHT31;64036;48.266;14.192;2024-03-06T02:32:18;6.51;77.21
75457;SHT31;64036;48.266;14.192;2024-03-06T02:34:44;6.39;77.38
75457;SHT31;64036;48.266;14.192;2024-03-06T02:37:10;6.29;77.53
75457;SHT31;64036;48.266;14.192;2024-03-06T02:39:36;6.18;77.53
75457;SHT31;64036;48.266;14.192;2024-03-06T02:42:02;6.04;77.67
75457;SHT31;64036;48.266;14.192;2024-03-06T02:44:29;5.98;77.70
75457;SHT31;64036;48.266;14.192;2024-03-06T02:46:55;5.90;77.70
75457;SHT31;64036;48.266;14.192;2024-03-06T02:49:21;5.82;77.74
75457;SHT31;64036;48.266;14.192;2024-03-06T02:51:56;5.75;77.97
75457;SHT31;64036;48.266;14.192;2024-03-06T02:54:23;5.70;78.21
75457;SHT31;64036;48.266;14.192;2024-03-06T02:56:51;5.67;78.33
75457;SHT31;64036;48.266;14.192;2024-03-06T02:59:17;5.63;78.30
75457;SHT31;64036;48.266;14.192;2024-03-06T03:01:44;5.61;78.31
75457;SHT31;64036;48.266;14.192;2024-03-06T03:04:10;5.59;78.35
75457;SHT31;64036;48.266;14.192;2024-03-06T03:06:38;5.57;78.29
75457;SHT31;64036;48.266;14.192;2024-03-06T03:09:06;5.56;78.15
75457;SHT31;64036;48.266;14.192;2024-03-06T03:11:38;5.55;78.17
75457;SHT31;64036;48.266;14.192;2024-03-06T03:14:04;5.50;78.10
75457;SHT31;64036;48.266;14.192;2024-03-06T03:16:32;5.45;78.09
75457;SHT31;64036;48.266;14.192;2024-03-06T03:18:58;5.41;78.06
75457;SHT31;64036;48.266;14.192;2024-03-06T03:21:27;5.38;78.15
75457;SHT31;64036;48.266;14.192;2024-03-06T03:24:15;5.39;78.31
75457;SHT31;64036;48.266;14.192;2024-03-06T03:26:45;5.38;78.27
75457;SHT31;64036;48.266;14.192;2024-03-06T03:29:11;5.37;78.30
75457;SHT31;64036;48.266;14.192;2024-03-06T03:31:36;5.35;78.23
75457;SHT31;64036;48.266;14.192;2024-03-06T03:34:03;5.34;78.21
75457;SHT31;64036;48.266;14.192;2024-03-06T03:36:30;5.33;78.28
75457;SHT31;64036;48.266;14.192;2024-03-06T03:38:56;5.32;78.28
75457;SHT31;64036;48.266;14.192;2024-03-06T03:41:24;5.32;78.24
75457;SHT31;64036;48.266;14.192;2024-03-06T03:43:50;5.27;78.20
75457;SHT31;64036;48.266;14.192;2024-03-06T03:46:16;5.25;78.22
75457;SHT31;64036;48.266;14.192;2024-03-06T03:48:49;5.22;78.17
75457;SHT31;64036;48.266;14.192;2024-03-06T03:51:19;5.19;78.19
75457;SHT31;64036;48.266;14.192;2024-03-06T03:53:45;5.19;78.20
75457;SHT31;64036;48.266;14.192;2024-03-06T03:56:24;5.17;78.10
75457;SHT31;64036;48.266;14.192;2024-03-06T03:59:00;5.14;78.09
75457;SHT31;64036;48.266;14.192;2024-03-06T04:01:27;5.12;78.05
75457;SHT31;64036;48.266;14.192;2024-03-06T04:03:53;5.11;78.10
75457;SHT31;64036;48.266;14.192;2024-03-06T04:06:19;5.11;78.09
75457;SHT31;64036;48.266;14.192;2024-03-06T04:08:45;5.11;78.09
75457;SHT31;64036;48.266;14.192;2024-03-06T04:11:10;5.11;78.12
75457;SHT31;64036;48.266;14.192;2024-03-06T04:13:37;5.11;78.20
75457;SHT31;64036;48.266;14.192;2024-03-06T04:16:04;5.09;78.20
75457;SHT31;64036;48.266;14.192;2024-03-06T04:18:30;5.09;78.30
75457;SHT31;64036;48.266;14.192;2024-03-06T04:21:04;5.09;78.31
75457;SHT31;64036;48.266;14.192;2024-03-06T04:23:30;5.11;78.45
75457;SHT31;64036;48.266;14.192;2024-03-06T04:26:03;5.21;78.50
75457;SHT31;64036;48.266;14.192;2024-03-06T04:28:29;5.26;78.39
75457;SHT31;64036;48.266;14.192;2024-03-06T04:30:58;5.29;78.42
75457;SHT31;64036;48.266;14.192;2024-03-06T04:33:23;5.33;78.41
75457;SHT31;64036;48.266;14.192;2024-03-06T04:35:49;5.35;78.43
75457;SHT31;64036;48.266;14.192;2024-03-06T04:38:15;5.38;78.45
75457;SHT31;64036;48.266;14.192;2024-03-06T04:40:41;5.39;78.47
75457;SHT31;64036;48.266;14.192;2024-03-06T04:43:07;5.42;78.54
75457;SHT31;64036;48.266;14.192;2024-03-06T04:45:33;5.47;78.54
75457;SHT31;64036;48.266;14.192;2024-03-06T04:47:59;5.50;78.48
75457;SHT31;64036;48.266;14.192;2024-03-06T04:50:25;5.54;78.40
75457;SHT31;64036;48.266;14.192;2024-03-06T04:52:52;5.57;78.33
75457;SHT31;64036;48.266;14.192;2024-03-06T04:55:18;5.59;78.29
75457;SHT31;64036;48.266;14.192;2024-03-06T04:57:47;5.57;78.27
75457;SHT31;64036;48.266;14.192;2024-03-06T05:00:14;5.51;78.39
75457;SHT31;64036;48.266;14.192;2024-03-06T05:02:40;5.46;78.40
75457;SHT31;64036;48.266;14.192;2024-03-06T05:05:07;5.44;78.44
75457;SHT31;64036;48.266;14.192;2024-03-06T05:07:33;5.42;78.50
75457;SHT31;64036;48.266;14.192;2024-03-06T05:09:59;5.46;78.56
75457;SHT31;64036;48.266;14.192;2024-03-06T05:12:26;5.47;78.50
75457;SHT31;64036;48.266;14.192;2024-03-06T05:15:01;5.47;78.49
75457;SHT31;64036;48.266;14.192;2024-03-06T05:17:37;5.48;78.49
75457;SHT31;64036;48.266;14.192;2024-03-06T05:20:03;5.49;78.49
75457;SHT31;64036;48.266;14.192;2024-03-06T05:22:29;5.49;78.47
75457;SHT31;64036;48.266;14.192;2024-03-06T05:24:56;5.50;78.50
75457;SHT31;64036;48.266;14.192;2024-03-06T05:27:23;5.49;78.49
75457;SHT31;64036;48.266;14.192;2024-03-06T05:29:53;5.47;78.49
75457;SHT31;64036;48.266;14.192;2024-03-06T05:32:19;5.46;78.53
75457;SHT31;64036;48.266;14.192;2024-03-06T05:34:45;5.45;78.51
75457;SHT31;64036;48.266;14.192;2024-03-06T05:37:11;5.43;78.59
75457;SHT31;64036;48.266;14.192;2024-03-06T05:39:37;5.44;78.60
75457;SHT31;64036;48.266;14.192;2024-03-06T05:42:04;5.43;78.54
75457;SHT31;64036;48.266;14.192;2024-03-06T05:44:33;5.42;78.50
75457;SHT31;64036;48.266;14.192;2024-03-06T05:47:00;5.42;78.62
75457;SHT31;64036;48.266;14.192;2024-03-06T05:49:27;5.45;78.66
75457;SHT31;64036;48.266;14.192;2024-03-06T05:52:02;5.46;78.64
75457;SHT31;64036;48.266;14.192;2024-03-06T05:54:33;5.48;78.55
75457;SHT31;64036;48.266;14.192;2024-03-06T05:57:02;5.47;78.51
75457;SHT31;64036;48.266;14.192;2024-03-06T05:59:28;5.49;78.58
75457;SHT31;64036;48.266;14.192;2024-03-06T06:01:54;5.52;78.63
75457;SHT31;64036;48.266;14.192;2024-03-06T06:04:20;5.58;78.74
75457;SHT31;64036;48.266;14.192;2024-03-06T06:06:47;5.66;78.71
75457;SHT31;64036;48.266;14.192;2024-03-06T06:09:12;5.73;78.74
75457;SHT31;64036;48.266;14.192;2024-03-06T06:11:43;5.80;78.73
75457;SHT31;64036;48.266;14.192;2024-03-06T06:14:12;5.87;78.74
75457;SHT31;64036;48.266;14.192;2024-03-06T06:16:38;5.95;78.69
75457;SHT31;64036;48.266;14.192;2024-03-06T06:19:07;6.01;78.61
75457;SHT31;64036;48.266;14.192;2024-03-06T06:21:34;6.08;78.47
75457;SHT31;64036;48.266;14.192;2024-03-06T06:24:04;6.16;78.40
75457;SHT31;64036;48.266;14.192;2024-03-06T06:26:30;6.23;78.19
75457;SHT31;64036;48.266;14.192;2024-03-06T06:28:57;6.30;78.04
75457;SHT31;64036;48.266;14.192;2024-03-06T06:31:23;6.38;77.93
75457;SHT31;64036;48.266;14.192;2024-03-06T06:33:52;6.47;77.80
75457;SHT31;64036;48.266;14.192;2024-03-06T06:36:18;6.54;77.67
75457;SHT31;64036;48.266;14.192;2024-03-06T06:38:45;6.61;77.55
75457;SHT31;64036;48.266;14.192;2024-03-06T06:41:15;6.68;77.46
75457;SHT31;64036;48.266;14.192;2024-03-06T06:43:46;6.72;77.41
75457;SHT31;64036;48.266;14.192;2024-03-06T06:46:11;6.79;77.41
75457;SHT31;64036;48.266;14.192;2024-03-06T06:48:37;6.86;77.31
75457;SHT31;64036;48.266;14.192;2024-03-06T06:51:03;6.92;77.17
75457;SHT31;64036;48.266;14.192;2024-03-06T06:53:29;6.97;76.93
75457;SHT31;64036;48.266;14.192;2024-03-06T06:55:56;7.03;76.82
75457;SHT31;64036;48.266;14.192;2024-03-06T06:58:23;7.11;76.51
75457;SHT31;64036;48.266;14.192;2024-03-06T07:00:49;7.18;76.15
75457;SHT31;64036;48.266;14.192;2024-03-06T07:03:14;7.26;76.01
75457;SHT31;64036;48.266;14.192;2024-03-06T07:05:40;7.33;75.80
75457;SHT31;64036;48.266;14.192;2024-03-06T07:08:11;7.39;75.41
75457;SHT31;64036;48.266;14.192;2024-03-06T07:10:36;7.45;75.20
75457;SHT31;64036;48.266;14.192;2024-03-06T07:13:02;7.52;75.13
75457;SHT31;64036;48.266;14.192;2024-03-06T07:15:29;7.57;74.90
75457;SHT31;64036;48.266;14.192;2024-03-06T07:18:00;7.65;75.01
75457;SHT31;64036;48.266;14.192;2024-03-06T07:20:39;7.72;74.97
75457;SHT31;64036;48.266;14.192;2024-03-06T07:23:16;7.79;74.78
75457;SHT31;64036;48.266;14.192;2024-03-06T07:25:42;7.88;74.79
75457;SHT31;64036;48.266;14.192;2024-03-06T07:28:10;7.95;74.27
75457;SHT31;64036;48.266;14.192;2024-03-06T07:30:36;8.00;74.10
75457;SHT31;64036;48.266;14.192;2024-03-06T07:33:02;8.04;74.03
75457;SHT31;64036;48.266;14.192;2024-03-06T07:35:28;8.10;73.83
75457;SHT31;64036;48.266;14.192;2024-03-06T07:37:56;8.16;73.76
75457;SHT31;64036;48.266;14.192;2024-03-06T07:40:22;8.21;73.43
75457;SHT31;64036;48.266;14.192;2024-03-06T07:42:48;8.26;73.11
75457;SHT31;64036;48.266;14.192;2024-03-06T07:45:13;8.25;72.96
75457;SHT31;64036;48.266;14.192;2024-03-06T07:47:39;8.27;72.85
75457;SHT31;64036;48.266;14.192;2024-03-06T07:50:06;8.33;72.94
75457;SHT31;64036;48.266;14.192;2024-03-06T07:52:36;8.38;72.87
75457;SHT31;64036;48.266;14.192;2024-03-06T07:55:01;8.42;72.96
75457;SHT31;64036;48.266;14.192;2024-03-06T07:57:28;8.46;72.96
75457;SHT31;64036;48.266;14.192;2024-03-06T07:59:54;8.52;72.88
75457;SHT31;64036;48.266;14.192;2024-03-06T08:02:20;8.56;72.77
75457;SHT31;64036;48.266;14.192;2024-03-06T08:04:46;8.60;72.80
75457;SHT31;64036;48.266;14.192;2024-03-06T08:07:13;8.63;72.73
75457;SHT31;64036;48.266;14.192;2024-03-06T08:09:39;8.64;72.68
75457;SHT31;64036;48.266;14.192;2024-03-06T08:12:05;8.61;72.86
75457;SHT31;64036;48.266;14.192;2024-03-06T08:14:31;8.61;73.11
75457;SHT31;64036;48.266;14.192;2024-03-06T08:16:56;8.60;72.86
75457;SHT31;64036;48.266;14.192;2024-03-06T08:19:22;8.61;72.89
75457;SHT31;64036;48.266;14.192;2024-03-06T08:21:50;8.64;73.01
75457;SHT31;64036;48.266;14.192;2024-03-06T08:24:15;8.64;73.09
75457;SHT31;64036;48.266;14.192;2024-03-06T08:26:42;8.67;72.93
75457;SHT31;64036;48.266;14.192;2024-03-06T08:29:08;8.75;73.09
75457;SHT31;64036;48.266;14.192;2024-03-06T08:31:39;8.82;73.02
75457;SHT31;64036;48.266;14.192;2024-03-06T08:35:29;8.79;72.88
75457;SHT31;64036;48.266;14.192;2024-03-06T08:37:55;8.79;72.75
75457;SHT31;64036;48.266;14.192;2024-03-06T08:40:21;8.77;72.77
75457;SHT31;64036;48.266;14.192;2024-03-06T08:42:48;8.76;72.79
75457;SHT31;64036;48.266;14.192;2024-03-06T08:45:14;8.78;72.58
75457;SHT31;64036;48.266;14.192;2024-03-06T08:47:42;8.74;72.75
75457;SHT31;64036;48.266;14.192;2024-03-06T08:50:09;8.72;72.79
75457;SHT31;64036;48.266;14.192;2024-03-06T08:52:35;8.72;72.88
75457;SHT31;64036;48.266;14.192;2024-03-06T08:55:02;8.73;73.11
75457;SHT31;64036;48.266;14.192;2024-03-06T08:57:37;8.69;73.18
75457;SHT31;64036;48.266;14.192;2024-03-06T09:00:04;8.70;73.20
75457;SHT31;64036;48.266;14.192;2024-03-06T09:02:42;8.70;73.39
75457;SHT31;64036;48.266;14.192;2024-03-06T09:05:07;8.69;73.32
75457;SHT31;64036;48.266;14.192;2024-03-06T09:07:35;8.74;73.36
75457;SHT31;64036;48.266;14.192;2024-03-06T09:10:06;8.75;73.15
75457;SHT31;64036;48.266;14.192;2024-03-06T09:12:33;8.80;73.10
75457;SHT31;64036;48.266;14.192;2024-03-06T09:14:58;8.88;73.03
75457;SHT31;64036;48.266;14.192;2024-03-06T09:17:26;8.97;72.86
75457;SHT31;64036;48.266;14.192;2024-03-06T09:22:27;9.13;72.37
75457;SHT31;64036;48.266;14.192;2024-03-06T09:24:53;9.19;72.44
75457;SHT31;64036;48.266;14.192;2024-03-06T09:27:19;9.26;72.01
75457;SHT31;64036;48.266;14.192;2024-03-06T09:29:44;9.30;71.66
75457;SHT31;64036;48.266;14.192;2024-03-06T09:32:10;9.34;71.68
75457;SHT31;64036;48.266;14.192;2024-03-06T09:34:38;9.34;71.46
75457;SHT31;64036;48.266;14.192;2024-03-06T09:37:03;9.38;71.44
75457;SHT31;64036;48.266;14.192;2024-03-06T09:39:30;9.42;71.11
75457;SHT31;64036;48.266;14.192;2024-03-06T09:41:55;9.47;70.62
75457;SHT31;64036;48.266;14.192;2024-03-06T09:44:22;9.48;70.13
75457;SHT31;64036;48.266;14.192;2024-03-06T09:46:48;9.46;69.81
75457;SHT31;64036;48.266;14.192;2024-03-06T09:49:17;9.45;69.51
75457;SHT31;64036;48.266;14.192;2024-03-06T09:51:44;9.38;69.23
75457;SHT31;64036;48.266;14.192;2024-03-06T09:54:12;9.28;69.43
75457;SHT31;64036;48.266;14.192;2024-03-06T09:56:43;9.22;69.86
75457;SHT31;64036;48.266;14.192;2024-03-06T09:59:10;9.20;69.65
75457;SHT31;64036;48.266;14.192;2024-03-06T10:01:41;9.22;70.05
75457;SHT31;64036;48.266;14.192;2024-03-06T10:04:22;9.22;69.65
75457;SHT31;64036;48.266;14.192;2024-03-06T10:06:49;9.33;69.63
75457;SHT31;64036;48.266;14.192;2024-03-06T10:09:20;9.43;69.60
75457;SHT31;64036;48.266;14.192;2024-03-06T10:11:46;9.49;69.20
75457;SHT31;64036;48.266;14.192;2024-03-06T10:14:12;9.55;69.18
75457;SHT31;64036;48.266;14.192;2024-03-06T10:16:54;9.63;68.97
75457;SHT31;64036;48.266;14.192;2024-03-06T10:19:25;9.70;68.63
75457;SHT31;64036;48.266;14.192;2024-03-06T10:21:54;9.79;68.60
75457;SHT31;64036;48.266;14.192;2024-03-06T10:24:23;9.85;68.35
75457;SHT31;64036;48.266;14.192;2024-03-06T10:26:50;9.92;68.09
75457;SHT31;64036;48.266;14.192;2024-03-06T10:29:19;9.94;67.88
75457;SHT31;64036;48.266;14.192;2024-03-06T10:31:48;9.99;67.81
75457;SHT31;64036;48.266;14.192;2024-03-06T10:34:15;10.06;67.61
75457;SHT31;64036;48.266;14.192;2024-03-06T10:36:42;10.14;67.56
75457;SHT31;64036;48.266;14.192;2024-03-06T10:39:08;10.22;67.39
75457;SHT31;64036;48.266;14.192;2024-03-06T10:41:39;10.28;67.13
75457;SHT31;64036;48.266;14.192;2024-03-06T10:44:12;10.38;67.19
75457;SHT31;64036;48.266;14.192;2024-03-06T10:46:41;10.38;66.49
75457;SHT31;64036;48.266;14.192;2024-03-06T10:49:12;10.36;66.37
75457;SHT31;64036;48.266;14.192;2024-03-06T10:51:42;10.39;66.44
75457;SHT31;64036;48.266;14.192;2024-03-06T10:54:10;10.40;66.82
75457;SHT31;64036;48.266;14.192;2024-03-06T10:56:39;10.40;66.16
75457;SHT31;64036;48.266;14.192;2024-03-06T10:59:11;10.44;66.31
75457;SHT31;64036;48.266;14.192;2024-03-06T11:01:39;10.50;65.44
75457;SHT31;64036;48.266;14.192;2024-03-06T11:04:06;10.56;64.62
75457;SHT31;64036;48.266;14.192;2024-03-06T11:06:32;10.67;64.38
75457;SHT31;64036;48.266;14.192;2024-03-06T11:08:59;10.83;64.50
75457;SHT31;64036;48.266;14.192;2024-03-06T11:11:28;10.93;63.61
75457;SHT31;64036;48.266;14.192;2024-03-06T11:14:03;10.97;63.68
75457;SHT31;64036;48.266;14.192;2024-03-06T11:16:33;10.94;62.79
75457;SHT31;64036;48.266;14.192;2024-03-06T11:20:20;10.93;62.92
75457;SHT31;64036;48.266;14.192;2024-03-06T11:30:57;11.02;63.06
75457;SHT31;64036;48.266;14.192;2024-03-06T11:33:43;11.20;62.32
75457;SHT31;64036;48.266;14.192;2024-03-06T11:36:15;11.38;61.60
75457;SHT31;64036;48.266;14.192;2024-03-06T11:39:01;11.65;61.14
75457;SHT31;64036;48.266;14.192;2024-03-06T11:41:31;11.90;60.25
75457;SHT31;64036;48.266;14.192;2024-03-06T11:44:21;12.10;60.51
75457;SHT31;64036;48.266;14.192;2024-03-06T11:46:59;12.27;60.39
75457;SHT31;64036;48.266;14.192;2024-03-06T11:49:27;12.35;59.14
75457;SHT31;64036;48.266;14.192;2024-03-06T11:51:54;12.26;57.86
75457;SHT31;64036;48.266;14.192;2024-03-06T11:54:30;12.20;58.15
75457;SHT31;64036;48.266;14.192;2024-03-06T11:56:58;12.22;57.72
75457;SHT31;64036;48.266;14.192;2024-03-06T12:01:58;12.26;57.74
75457;SHT31;64036;48.266;14.192;2024-03-06T12:04:33;12.23;57.44
75457;SHT31;64036;48.266;14.192;2024-03-06T12:07:02;12.18;58.16
75457;SHT31;64036;48.266;14.192;2024-03-06T12:09:31;12.16;58.10
75457;SHT31;64036;48.266;14.192;2024-03-06T12:11:58;12.14;58.25
75457;SHT31;64036;48.266;14.192;2024-03-06T12:14:24;11.97;58.14
75457;SHT31;64036;48.266;14.192;2024-03-06T12:17:00;11.92;58.11
75457;SHT31;64036;48.266;14.192;2024-03-06T12:19:32;11.97;58.20
75457;SHT31;64036;48.266;14.192;2024-03-06T12:22:00;11.93;59.53
75457;SHT31;64036;48.266;14.192;2024-03-06T12:24:28;11.86;60.82
75457;SHT31;64036;48.266;14.192;2024-03-06T12:27:03;11.90;60.86
75457;SHT31;64036;48.266;14.192;2024-03-06T12:29:32;11.93;60.16
75457;SHT31;64036;48.266;14.192;2024-03-06T12:31:59;12.04;60.30
75457;SHT31;64036;48.266;14.192;2024-03-06T12:34:27;12.13;59.68
75457;SHT31;64036;48.266;14.192;2024-03-06T12:36:55;12.09;60.19
75457;SHT31;64036;48.266;14.192;2024-03-06T12:39:21;12.05;59.98
75457;SHT31;64036;48.266;14.192;2024-03-06T12:41:51;12.28;59.75
75457;SHT31;64036;48.266;14.192;2024-03-06T12:44:17;12.54;60.16
75457;SHT31;64036;48.266;14.192;2024-03-06T12:46:44;12.75;59.37
75457;SHT31;64036;48.266;14.192;2024-03-06T12:49:10;12.90;58.86
75457;SHT31;64036;48.266;14.192;2024-03-06T12:51:36;13.07;58.19
75457;SHT31;64036;48.266;14.192;2024-03-06T12:54:01;13.00;57.31
75457;SHT31;64036;48.266;14.192;2024-03-06T12:56:28;12.76;57.24
75457;SHT31;64036;48.266;14.192;2024-03-06T12:58:54;12.74;56.91
75457;SHT31;64036;48.266;14.192;2024-03-06T13:01:20;12.77;57.71
75457;SHT31;64036;48.266;14.192;2024-03-06T13:03:46;12.70;57.72
75457;SHT31;64036;48.266;14.192;2024-03-06T13:06:12;12.61;58.04
75457;SHT31;64036;48.266;14.192;2024-03-06T13:08:38;12.58;57.98
75457;SHT31;64036;48.266;14.192;2024-03-06T13:11:03;12.48;58.04
75457;SHT31;64036;48.266;14.192;2024-03-06T13:13:29;12.48;58.64
75457;SHT31;64036;48.266;14.192;2024-03-06T13:15:57;12.50;58.10
75457;SHT31;64036;48.266;14.192;2024-03-06T13:18:24;12.62;58.03
75457;SHT31;64036;48.266;14.192;2024-03-06T13:20:50;12.59;57.35
75457;SHT31;64036;48.266;14.192;2024-03-06T13:23:17;12.49;57.82
75457;SHT31;64036;48.266;14.192;2024-03-06T13:25:43;12.50;58.08
75457;SHT31;64036;48.266;14.192;2024-03-06T13:28:10;12.43;58.10
75457;SHT31;64036;48.266;14.192;2024-03-06T13:30:38;12.40;58.38
75457;SHT31;64036;48.266;14.192;2024-03-06T13:33:04;12.17;58.39
75457;SHT31;64036;48.266;14.192;2024-03-06T13:35:30;12.11;59.03
75457;SHT31;64036;48.266;14.192;2024-03-06T13:37:56;12.11;58.66
75457;SHT31;64036;48.266;14.192;2024-03-06T13:40:22;11.96;59.67
75457;SHT31;64036;48.266;14.192;2024-03-06T13:42:48;11.88;59.38
75457;SHT31;64036;48.266;14.192;2024-03-06T13:45:14;11.76;59.36
75457;SHT31;64036;48.266;14.192;2024-03-06T13:47:40;11.75;59.44
75457;SHT31;64036;48.266;14.192;2024-03-06T13:50:10;11.76;59.59
75457;SHT31;64036;48.266;14.192;2024-03-06T13:52:38;11.66;59.55
75457;SHT31;64036;48.266;14.192;2024-03-06T13:55:05;11.61;59.65
75457;SHT31;64036;48.266;14.192;2024-03-06T13:57:35;11.61;59.85
75457;SHT31;64036;48.266;14.192;2024-03-06T14:00:09;11.62;59.60
75457;SHT31;64036;48.266;14.192;2024-03-06T14:02:42;11.61;59.39
75457;SHT31;64036;48.266;14.192;2024-03-06T14:05:11;11.57;59.63
75457;SHT31;64036;48.266;14.192;2024-03-06T14:07:37;11.55;60.32
75457;SHT31;64036;48.266;14.192;2024-03-06T14:10:03;11.50;60.05
75457;SHT31;64036;48.266;14.192;2024-03-06T14:12:30;11.51;60.04
75457;SHT31;64036;48.266;14.192;2024-03-06T14:14:55;11.55;60.06
75457;SHT31;64036;48.266;14.192;2024-03-06T14:17:21;11.57;59.67
75457;SHT31;64036;48.266;14.192;2024-03-06T14:19:47;11.55;59.68
75457;SHT31;64036;48.266;14.192;2024-03-06T14:22:12;11.59;59.43
75457;SHT31;64036;48.266;14.192;2024-03-06T14:24:38;11.59;59.59
75457;SHT31;64036;48.266;14.192;2024-03-06T14:27:04;11.56;60.10
75457;SHT31;64036;48.266;14.192;2024-03-06T14:29:30;11.46;60.06
75457;SHT31;64036;48.266;14.192;2024-03-06T14:31:56;11.37;60.71
75457;SHT31;64036;48.266;14.192;2024-03-06T14:34:22;11.35;61.13
75457;SHT31;64036;48.266;14.192;2024-03-06T14:36:50;11.35;60.53
75457;SHT31;64036;48.266;14.192;2024-03-06T14:39:16;11.33;60.82
75457;SHT31;64036;48.266;14.192;2024-03-06T14:41:43;11.33;61.10
75457;SHT31;64036;48.266;14.192;2024-03-06T14:44:10;11.33;61.20
75457;SHT31;64036;48.266;14.192;2024-03-06T14:46:36;11.35;61.30
75457;SHT31;64036;48.266;14.192;2024-03-06T14:49:01;11.35;60.79
75457;SHT31;64036;48.266;14.192;2024-03-06T14:51:28;11.35;60.68
75457;SHT31;64036;48.266;14.192;2024-03-06T14:53:53;11.36;60.88
75457;SHT31;64036;48.266;14.192;2024-03-06T14:56:20;11.35;60.70
75457;SHT31;64036;48.266;14.192;2024-03-06T14:58:46;11.37;60.92
75457;SHT31;64036;48.266;14.192;2024-03-06T15:01:13;11.39;61.34
75457;SHT31;64036;48.266;14.192;2024-03-06T15:03:39;11.38;61.26
75457;SHT31;64036;48.266;14.192;2024-03-06T15:06:06;11.36;61.58
75457;SHT31;64036;48.266;14.192;2024-03-06T15:08:35;11.35;61.80
75457;SHT31;64036;48.266;14.192;2024-03-06T15:11:01;11.37;61.91
75457;SHT31;64036;48.266;14.192;2024-03-06T15:13:27;11.37;61.76
75457;SHT31;64036;48.266;14.192;2024-03-06T15:15:53;11.38;61.79
75457;SHT31;64036;48.266;14.192;2024-03-06T15:18:19;11.38;61.90
75457;SHT31;64036;48.266;14.192;2024-03-06T15:20:45;11.39;61.83
75457;SHT31;64036;48.266;14.192;2024-03-06T15:23:11;11.35;61.82
75457;SHT31;64036;48.266;14.192;2024-03-06T15:25:37;11.33;61.92
75457;SHT31;64036;48.266;14.192;2024-03-06T15:28:03;11.32;61.76
75457;SHT31;64036;48.266;14.192;2024-03-06T15:30:29;11.31;61.55
75457;SHT31;64036;48.266;14.192;2024-03-06T15:32:57;11.24;61.16
75457;SHT31;64036;48.266;14.192;2024-03-06T15:35:22;11.14;60.85
75457;SHT31;64036;48.266;14.192;2024-03-06T15:37:48;11.05;60.60
75457;SHT31;64036;48.266;14.192;2024-03-06T15:40:14;11.00;60.66
75457;SHT31;64036;48.266;14.192;2024-03-06T15:42:41;10.96;60.61
75457;SHT31;64036;48.266;14.192;2024-03-06T15:45:08;10.94;61.21